Time;durP1;ratioP1;P1;durP2;ratioP2;P2;SDS_P1;SDS_P2;PMS_P1;PMS_P2;Temp;Humidity;BMP_temperature;BMP_pressure;BME280_temperature;BME280_humidity;BME280_pressure;Samples;Min_cycle;Max_cycle;Signal;HPM_P1;HPM_P2
2022/03/14 00:00:58;;;;;;;0.50;0.50;;;;;;;9.14;60.92;100357.59;5017512;28;20841;-48
2022/03/14 00:03:26;;;;;;;3.30;3.10;;;;;;;9.00;60.82;100361.47;5016430;28;20477;-48
2022/03/14 00:05:54;;;;;;;0.30;0.20;;;;;;;8.94;63.07;100354.53;5010889;28;21071;-47
2022/03/14 00:08:21;;;;;;;0.30;0.20;;;;;;;9.03;62.09;100367.56;5014950;28;20480;-47
2022/03/14 00:10:51;;;;;;;0.30;0.20;;;;;;;9.05;62.54;100367.56;5014566;28;20453;-48
2022/03/14 00:13:18;;;;;;;0.30;0.20;;;;;;;9.12;63.60;100361.22;5014685;28;20824;-47
2022/03/14 00:15:44;;;;;;;1.17;1.07;;;;;;;8.98;64.25;100361.50;5014700;28;20510;-48
2022/03/14 00:18:11;;;;;;;1.07;0.47;;;;;;;9.01;60.32;100356.13;5014715;28;20499;-48
2022/03/14 00:20:40;;;;;;;4.83;2.03;;;;;;;8.84;61.55;100358.25;5013481;28;20523;-47
2022/03/14 00:23:08;;;;;;;0.30;0.20;;;;;;;8.91;60.66;100351.94;5014686;28;20519;-48
2022/03/14 00:25:36;;;;;;;0.40;0.30;;;;;;;9.12;59.79;100363.84;5014233;28;20488;-47
2022/03/14 00:28:03;;;;;;;0.30;0.20;;;;;;;9.22;59.36;100364.53;5014875;28;20457;-47
2022/03/14 00:30:30;;;;;;;0.40;0.30;;;;;;;9.26;60.15;100380.34;5014611;28;20456;-48
2022/03/14 00:32:57;;;;;;;0.30;0.20;;;;;;;9.28;59.18;100396.22;5014363;28;20818;-48
2022/03/14 00:35:25;;;;;;;2.00;1.90;;;;;;;9.41;58.14;100416.28;5014214;28;20448;-48
2022/03/14 00:37:51;;;;;;;0.40;0.23;;;;;;;9.32;58.35;100425.31;5014148;28;20461;-48
2022/03/14 00:40:18;;;;;;;1.90;0.60;;;;;;;9.61;57.66;100426.47;5014071;28;20510;-48
2022/03/14 00:42:51;;;;;;;0.30;0.20;;;;;;;9.65;57.70;100430.78;5014327;28;20451;-48
2022/03/14 00:45:21;;;;;;;0.60;0.60;;;;;;;9.63;57.61;100473.28;5001203;28;20488;-48
2022/03/14 00:47:48;;;;;;;0.87;0.87;;;;;;;9.49;57.31;100494.81;5013911;28;20480;-48
2022/03/14 00:50:14;;;;;;;0.30;0.20;;;;;;;9.56;56.77;100479.63;5014077;28;20444;-48
2022/03/14 00:52:41;;;;;;;1.67;1.57;;;;;;;9.55;55.88;100490.28;5014171;28;20480;-48
2022/03/14 00:55:08;;;;;;;0.30;0.20;;;;;;;9.70;55.39;100497.91;5014119;28;20527;-48
2022/03/14 00:57:35;;;;;;;0.30;0.20;;;;;;;9.68;55.20;100497.06;5013808;28;20461;-48
2022/03/14 01:00:01;;;;;;;0.40;0.30;;;;;;;9.79;53.65;100493.28;5014001;28;20456;-47
2022/03/14 01:02:28;;;;;;;0.30;0.20;;;;;;;9.88;53.17;100508.13;5025819;28;20517;-47
2022/03/14 01:04:55;;;;;;;0.67;0.67;;;;;;;10.04;52.90;100519.28;5001836;28;20519;-47
2022/03/14 01:07:22;;;;;;;1.40;0.73;;;;;;;10.24;54.00;100522.38;5013867;28;20482;-47
2022/03/14 01:09:48;;;;;;;0.30;0.20;;;;;;;10.16;58.06;100526.97;5013522;28;20873;-47
2022/03/14 01:12:15;;;;;;;0.40;0.40;;;;;;;10.26;65.80;100528.53;5013701;28;20453;-48
2022/03/14 01:14:43;;;;;;;0.30;0.20;;;;;;;10.41;68.78;100529.94;5013622;28;20477;-47
2022/03/14 01:17:10;;;;;;;0.30;0.20;;;;;;;10.50;71.30;100548.31;5013358;28;20961;-48
2022/03/14 01:19:38;;;;;;;0.73;0.73;;;;;;;10.46;76.03;100546.66;5013397;28;20949;-48
2022/03/14 01:22:10;;;;;;;0.30;0.30;;;;;;;10.49;80.93;100557.22;5013322;28;20548;-48
2022/03/14 01:24:42;;;;;;;3.17;1.33;;;;;;;10.39;85.61;100556.53;5013171;28;20525;-48
2022/03/14 01:27:08;;;;;;;0.30;0.20;;;;;;;10.27;88.79;100559.47;5013407;28;20531;-48
2022/03/14 01:29:35;;;;;;;0.30;0.20;;;;;;;10.18;89.34;100561.47;5013347;28;20452;-47
2022/03/14 01:32:04;;;;;;;0.30;0.20;;;;;;;10.18;93.48;100570.31;5013039;28;20945;-47
2022/03/14 01:34:30;;;;;;;0.40;0.27;;;;;;;10.18;95.57;100572.97;5013067;28;20989;-48
2022/03/14 01:36:57;;;;;;;0.30;0.20;;;;;;;10.14;96.89;100573.91;5013090;28;20459;-47
2022/03/14 01:39:25;;;;;;;0.47;0.47;;;;;;;10.14;99.00;100586.31;5013418;28;20449;-48
2022/03/14 01:41:51;;;;;;;0.30;0.20;;;;;;;10.14;100.00;100589.84;5013310;28;20499;-47
2022/03/14 01:44:19;;;;;;;0.30;0.20;;;;;;;10.10;100.00;100589.06;5013243;28;20511;-48
2022/03/14 01:46:51;;;;;;;0.30;0.20;;;;;;;10.00;100.00;100602.56;5013094;28;20523;-48
2022/03/14 01:49:18;;;;;;;0.30;0.20;;;;;;;9.86;100.00;100604.63;5013272;28;20455;-48
2022/03/14 01:51:44;;;;;;;0.40;0.40;;;;;;;9.82;100.00;100606.47;5012776;28;20449;-48
2022/03/14 01:54:11;;;;;;;0.30;0.20;;;;;;;9.87;100.00;100607.28;5012946;28;20469;-47
2022/03/14 01:56:39;;;;;;;0.30;0.20;;;;;;;9.67;100.00;100614.75;5012915;28;20984;-48
2022/03/14 01:59:06;;;;;;;2.40;1.27;;;;;;;9.65;100.00;100613.91;5012964;28;20452;-48
2022/03/14 02:01:33;;;;;;;0.30;0.20;;;;;;;9.83;100.00;100618.84;5007967;28;20448;-48
2022/03/14 02:04:00;;;;;;;0.30;0.20;;;;;;;9.93;100.00;100631.03;5005289;28;20524;-48
2022/03/14 02:06:27;;;;;;;0.30;0.20;;;;;;;9.85;100.00;100635.63;5012983;28;20496;-47
2022/03/14 02:08:55;;;;;;;0.30;0.30;;;;;;;9.85;100.00;100640.06;5012735;28;20499;-48
2022/03/14 02:11:23;;;;;;;0.30;0.20;;;;;;;9.67;100.00;100638.66;5012828;28;20460;-48
2022/03/14 02:13:50;;;;;;;0.30;0.20;;;;;;;9.87;100.00;100638.25;5012336;28;20527;-48
2022/03/14 02:16:17;;;;;;;0.40;0.30;;;;;;;9.76;100.00;100647.31;5013067;28;20472;-47
2022/03/14 02:18:43;;;;;;;0.30;0.20;;;;;;;9.74;100.00;100645.59;5012517;28;20950;-48
2022/03/14 02:21:13;;;;;;;0.30;0.20;;;;;;;9.67;100.00;100655.44;5012794;28;20491;-47
2022/03/14 02:23:40;;;;;;;0.30;0.20;;;;;;;9.71;100.00;100657.13;5012576;28;20546;-48
2022/03/14 02:26:07;;;;;;;0.30;0.20;;;;;;;9.61;100.00;100655.56;5012646;28;20914;-48
2022/03/14 02:28:34;;;;;;;0.30;0.20;;;;;;;9.65;100.00;100662.56;5012868;28;20475;-48
2022/03/14 02:31:03;;;;;;;0.30;0.20;;;;;;;9.75;100.00;100664.16;5012646;28;20452;-48
2022/03/14 02:33:30;;;;;;;0.37;0.30;;;;;;;9.61;100.00;100660.88;5012254;28;20469;-48
2022/03/14 02:35:57;;;;;;;0.30;0.20;;;;;;;9.65;100.00;100665.22;5012465;28;20881;-48
2022/03/14 02:38:24;;;;;;;0.30;0.20;;;;;;;9.58;100.00;100674.19;5012378;28;20444;-48
2022/03/14 02:40:50;;;;;;;0.53;0.30;;;;;;;9.41;100.00;100671.84;5012211;28;21011;-48
2022/03/14 02:43:24;;;;;;;0.97;0.97;;;;;;;9.56;100.00;100672.47;5012268;28;20507;-47
2022/03/14 02:45:52;;;;;;;0.30;0.20;;;;;;;9.57;100.00;100679.53;5012580;28;20488;-48
2022/03/14 02:48:19;;;;;;;0.30;0.20;;;;;;;9.57;100.00;100674.22;5012130;28;20459;-48
2022/03/14 02:50:48;;;;;;;0.30;0.13;;;;;;;9.56;100.00;100678.66;5012204;28;20941;-48
2022/03/14 02:53:16;;;;;;;0.87;0.87;;;;;;;9.50;100.00;100692.03;5011888;28;20448;-49
2022/03/14 02:55:44;;;;;;;0.30;0.20;;;;;;;9.50;100.00;100698.22;5012431;28;20531;-49
2022/03/14 02:58:11;;;;;;;0.30;0.20;;;;;;;9.48;100.00;100701.81;5012274;28;20457;-49
2022/03/14 03:00:38;;;;;;;0.30;0.20;;;;;;;9.54;100.00;100706.13;5012146;28;21036;-49
2022/03/14 03:03:06;;;;;;;0.30;0.20;;;;;;;9.49;100.00;100708.88;5019087;28;20458;-48
2022/03/14 03:05:34;;;;;;;0.30;0.20;;;;;;;9.49;100.00;100711.53;5008973;28;21000;-49
2022/03/14 03:08:03;;;;;;;0.30;0.20;;;;;;;9.36;100.00;100704.66;5002910;28;20451;-48
2022/03/14 03:10:34;;;;;;;0.30;0.20;;;;;;;9.40;100.00;100709.00;5015879;28;20448;-49
2022/03/14 03:13:02;;;;;;;0.30;0.10;;;;;;;9.40;100.00;100703.72;5015956;28;20445;-49
2022/03/14 03:15:29;;;;;;;0.30;0.13;;;;;;;9.37;100.00;100703.78;5015606;28;20935;-48
2022/03/14 03:17:56;;;;;;;0.30;0.20;;;;;;;9.36;100.00;100712.63;5015747;28;20518;-48
2022/03/14 03:20:25;;;;;;;0.67;0.67;;;;;;;9.35;100.00;100716.19;5015536;28;20451;-49
2022/03/14 03:22:52;;;;;;;0.30;0.20;;;;;;;9.29;100.00;100713.63;5015820;28;20502;-48
2022/03/14 03:25:19;;;;;;;0.30;0.20;;;;;;;9.34;100.00;100722.41;5015638;28;20500;-49
2022/03/14 03:27:46;;;;;;;0.30;0.20;;;;;;;9.34;100.00;100725.06;5015587;28;20949;-49
2022/03/14 03:30:13;;;;;;;4.87;1.90;;;;;;;9.36;100.00;100724.13;5015572;28;20455;-48
2022/03/14 03:32:39;;;;;;;0.30;0.20;;;;;;;9.31;100.00;100722.41;5015494;28;20456;-48
2022/03/14 03:35:07;;;;;;;0.30;0.20;;;;;;;9.27;100.00;100718.06;5015264;28;20893;-49
2022/03/14 03:37:34;;;;;;;0.30;0.20;;;;;;;9.31;100.00;100725.06;5015664;28;20452;-48
2022/03/14 03:40:01;;;;;;;0.30;0.20;;;;;;;9.23;100.00;100725.22;5015319;28;20461;-49
2022/03/14 03:42:27;;;;;;;0.30;0.20;;;;;;;9.25;100.00;100733.16;5015393;28;20471;-49
2022/03/14 03:44:54;;;;;;;0.30;0.20;;;;;;;9.28;100.00;100735.75;5015116;28;21039;-48
2022/03/14 03:47:21;;;;;;;0.40;0.30;;;;;;;9.22;100.00;100744.69;5015080;28;20527;-48
2022/03/14 03:49:49;;;;;;;0.30;0.20;;;;;;;9.15;100.00;100746.53;5015191;28;20457;-48
2022/03/14 03:52:15;;;;;;;0.30;0.20;;;;;;;9.13;100.00;100753.66;5023753;28;20457;-48
2022/03/14 03:54:42;;;;;;;0.30;0.20;;;;;;;9.11;100.00;100752.81;5015070;28;20473;-49
2022/03/14 03:57:08;;;;;;;0.30;0.20;;;;;;;9.09;100.00;100762.56;5015168;28;20510;-48
2022/03/14 03:59:35;;;;;;;0.30;0.20;;;;;;;9.00;100.00;100770.63;5014937;28;20452;-48
2022/03/14 04:02:02;;;;;;;0.30;0.20;;;;;;;9.06;100.00;100769.69;5025846;28;20474;-48
2022/03/14 04:04:30;;;;;;;0.30;0.10;;;;;;;9.02;100.00;100773.25;5003560;28;20477;-49
2022/03/14 04:06:57;;;;;;;0.30;0.20;;;;;;;9.02;100.00;100787.41;5008562;28;20515;-48
2022/03/14 04:09:24;;;;;;;0.30;0.20;;;;;;;8.92;100.00;100788.44;5014620;28;20452;-49
2022/03/14 04:11:52;;;;;;;0.30;0.20;;;;;;;8.87;100.00;100787.63;5013631;28;20858;-49
2022/03/14 04:14:21;;;;;;;0.30;0.20;;;;;;;8.73;100.00;100795.75;5014857;28;20480;-48
2022/03/14 04:16:48;;;;;;;0.30;0.20;;;;;;;8.65;100.00;100799.41;5014900;28;20449;-48
2022/03/14 04:19:16;;;;;;;0.30;0.20;;;;;;;8.53;100.00;100806.63;5013486;28;20457;-47
2022/03/14 04:21:45;;;;;;;0.30;0.20;;;;;;;8.71;100.00;100818.75;5014680;28;20453;-48
2022/03/14 04:24:11;;;;;;;0.30;0.20;;;;;;;8.79;100.00;100824.84;5001844;28;20516;-47
2022/03/14 04:26:38;;;;;;;0.30;0.20;;;;;;;8.93;100.00;100829.97;5014427;28;20492;-47
2022/03/14 04:29:05;;;;;;;0.80;0.80;;;;;;;8.89;100.00;100834.41;5014318;28;20448;-47
2022/03/14 04:31:32;;;;;;;0.30;0.20;;;;;;;8.88;100.00;100834.44;5014345;28;20842;-48
2022/03/14 04:33:59;;;;;;;0.30;0.20;;;;;;;9.04;100.00;100841.28;5014450;28;20564;-47
2022/03/14 04:36:25;;;;;;;0.30;0.10;;;;;;;9.04;100.00;100843.94;5013189;28;20445;-47
2022/03/14 04:38:52;;;;;;;0.30;0.20;;;;;;;9.02;100.00;100845.72;5014343;28;20452;-47
2022/03/14 04:41:19;;;;;;;0.30;0.10;;;;;;;9.09;100.00;100843.91;5014086;28;20511;-47
2022/03/14 04:43:45;;;;;;;0.30;0.20;;;;;;;9.19;100.00;100843.75;5013884;28;20986;-47
2022/03/14 04:46:12;;;;;;;0.30;0.20;;;;;;;9.35;100.00;100846.19;5014103;28;20484;-47
2022/03/14 04:48:38;;;;;;;0.30;0.10;;;;;;;9.31;100.00;100849.75;5013858;28;20980;-48
2022/03/14 04:51:05;;;;;;;0.30;0.20;;;;;;;9.33;100.00;100846.22;5013815;28;20958;-47
2022/03/14 04:53:32;;;;;;;0.30;0.20;;;;;;;9.33;100.00;100847.97;5013955;28;20520;-47
2022/03/14 04:55:58;;;;;;;0.30;0.20;;;;;;;9.25;100.00;100847.22;5013864;28;20452;-48
2022/03/14 04:58:25;;;;;;;0.30;0.20;;;;;;;9.17;100.00;100853.47;5013831;28;20811;-47
2022/03/14 05:00:53;;;;;;;0.30;0.20;;;;;;;9.40;100.00;100858.47;5015101;28;20450;-47
2022/03/14 05:03:20;;;;;;;0.30;0.10;;;;;;;9.33;100.00;100856.81;5016571;28;21002;-47
2022/03/14 05:05:47;;;;;;;0.30;0.10;;;;;;;9.23;100.00;100863.16;5008905;28;20936;-47
2022/03/14 05:08:14;;;;;;;0.30;0.20;;;;;;;9.04;100.00;100865.16;5013817;28;20456;-47
2022/03/14 05:10:42;;;;;;;0.30;0.10;;;;;;;9.07;100.00;100875.75;5013708;28;20445;-47
2022/03/14 05:13:09;;;;;;;0.30;0.20;;;;;;;9.08;100.00;100882.78;5013899;28;20456;-48
2022/03/14 05:15:36;;;;;;;0.30;0.20;;;;;;;9.02;100.00;100885.50;5013433;28;21028;-47
2022/03/14 05:18:03;;;;;;;0.30;0.20;;;;;;;9.22;100.00;100889.69;5013666;28;20830;-47
2022/03/14 05:20:29;;;;;;;0.30;0.20;;;;;;;9.16;100.00;100901.25;5013500;28;20460;-48
2022/03/14 05:22:56;;;;;;;0.30;0.20;;;;;;;9.37;100.00;100900.09;5013520;28;20456;-48
2022/03/14 05:25:23;;;;;;;0.30;0.20;;;;;;;9.41;100.00;100901.78;5013100;28;20954;-47
2022/03/14 05:27:52;;;;;;;0.30;0.20;;;;;;;9.38;100.00;100902.72;5012845;28;20527;-47
2022/03/14 05:30:19;;;;;;;0.30;0.20;;;;;;;9.32;100.00;100912.53;5012161;28;20456;-47
2022/03/14 05:32:46;;;;;;;0.30;0.20;;;;;;;9.37;100.00;100918.66;5013441;28;20502;-47
2022/03/14 05:35:13;;;;;;;0.30;0.20;;;;;;;9.25;100.00;100921.47;5013147;28;20532;-47
2022/03/14 05:37:40;;;;;;;0.30;0.20;;;;;;;9.18;100.00;100921.56;5013247;28;20445;-47
2022/03/14 05:40:10;;;;;;;0.30;0.10;;;;;;;9.13;100.00;100928.69;5013021;28;20484;-47
2022/03/14 05:42:37;;;;;;;0.30;0.20;;;;;;;9.00;100.00;100935.03;5013035;28;20476;-47
2022/03/14 05:45:04;;;;;;;0.30;0.20;;;;;;;9.07;100.00;100933.19;5013037;28;20531;-47
2022/03/14 05:47:31;;;;;;;0.30;0.10;;;;;;;9.25;100.00;100929.44;5012986;28;20501;-47
2022/03/14 05:49:57;;;;;;;0.30;0.10;;;;;;;9.11;100.00;100926.97;5012853;28;20452;-48
2022/03/14 05:52:24;;;;;;;0.30;0.20;;;;;;;9.17;100.00;100934.81;5012861;28;20448;-47
2022/03/14 05:54:50;;;;;;;0.30;0.20;;;;;;;9.03;100.00;100942.94;5012839;28;20504;-48
2022/03/14 05:57:17;;;;;;;0.30;0.20;;;;;;;9.26;100.00;100945.34;5012930;28;20450;-47
2022/03/14 05:59:44;;;;;;;0.30;0.20;;;;;;;9.07;100.00;100957.94;5012876;28;20510;-48
2022/03/14 06:02:11;;;;;;;0.30;0.20;;;;;;;9.18;100.00;100958.72;5025061;28;20483;-47
2022/03/14 06:04:39;;;;;;;0.30;0.20;;;;;;;9.08;100.00;100969.44;5000175;28;20480;-47
2022/03/14 06:07:06;;;;;;;0.30;0.20;;;;;;;9.10;100.00;100957.91;5012585;28;20492;-48
2022/03/14 06:09:33;;;;;;;0.30;0.20;;;;;;;9.09;100.00;100957.94;5012781;28;20503;-47
2022/03/14 06:11:59;;;;;;;0.30;0.20;;;;;;;9.05;100.00;100967.69;5012629;28;20898;-47
2022/03/14 06:14:26;;;;;;;0.30;0.10;;;;;;;9.01;100.00;100958.00;5012506;28;20491;-47
2022/03/14 06:16:53;;;;;;;0.30;0.20;;;;;;;8.92;100.00;100965.19;5012744;28;20472;-47
2022/03/14 06:19:19;;;;;;;0.30;0.20;;;;;;;9.09;100.00;100971.19;4992871;28;20481;-47
2022/03/14 06:21:46;;;;;;;1.07;1.07;;;;;;;8.90;100.00;100973.16;5005907;28;20492;-47
2022/03/14 06:24:13;;;;;;;0.30;0.20;;;;;;;9.07;100.00;100981.81;5012667;28;20473;-47
2022/03/14 06:26:40;;;;;;;0.30;0.20;;;;;;;9.14;100.00;100983.47;5012516;28;20492;-47
2022/03/14 06:29:07;;;;;;;0.30;0.20;;;;;;;9.11;100.00;100988.84;5012629;28;20942;-48
2022/03/14 06:31:34;;;;;;;0.30;0.20;;;;;;;9.02;100.00;100996.88;5012471;28;20448;-47
2022/03/14 06:34:02;;;;;;;0.30;0.17;;;;;;;9.07;100.00;101011.00;5012294;28;20552;-47
2022/03/14 06:36:29;;;;;;;0.30;0.20;;;;;;;9.06;100.00;101005.69;5012592;28;20869;-47
2022/03/14 06:38:58;;;;;;;0.30;0.20;;;;;;;9.27;100.00;101015.19;5015321;28;20829;-48
2022/03/14 06:41:29;;;;;;;0.30;0.10;;;;;;;9.08;100.00;101025.13;5016518;28;20455;-48
2022/03/14 06:43:57;;;;;;;0.30;0.20;;;;;;;9.07;100.00;101032.19;5016489;28;20894;-48
2022/03/14 06:46:24;;;;;;;0.30;0.20;;;;;;;9.02;100.00;101031.34;5016182;28;20484;-49
2022/03/14 06:48:50;;;;;;;0.30;0.20;;;;;;;9.02;100.00;101034.00;5016409;28;20456;-49
2022/03/14 06:51:17;;;;;;;0.30;0.20;;;;;;;8.97;100.00;101027.00;5016509;28;20488;-49
2022/03/14 06:53:44;;;;;;;0.30;0.20;;;;;;;9.08;100.00;101036.59;5015059;28;20472;-49
2022/03/14 06:56:10;;;;;;;0.30;0.10;;;;;;;9.03;100.00;101038.41;5016215;28;20868;-49
2022/03/14 06:58:37;;;;;;;0.30;0.13;;;;;;;9.03;100.00;101048.13;5016201;28;20486;-49
2022/03/14 07:01:04;;;;;;;0.30;0.20;;;;;;;9.06;100.00;101042.81;5019253;28;20502;-49
2022/03/14 07:03:30;;;;;;;0.30;0.20;;;;;;;9.22;100.00;101048.84;5016463;28;20472;-49
2022/03/14 07:05:57;;;;;;;0.30;0.20;;;;;;;9.24;100.00;101045.28;5012941;28;20498;-49
2022/03/14 07:08:24;;;;;;;0.30;0.10;;;;;;;9.18;100.00;101045.31;5016148;28;21019;-49
2022/03/14 07:10:50;;;;;;;0.30;0.20;;;;;;;9.17;100.00;101047.09;5015773;28;20872;-48
2022/03/14 07:13:17;;;;;;;0.30;0.20;;;;;;;9.28;100.00;101046.09;5016108;28;20511;-49
2022/03/14 07:15:44;;;;;;;0.30;0.20;;;;;;;9.23;100.00;101051.47;5015587;28;20945;-49
2022/03/14 07:18:11;;;;;;;0.30;0.30;;;;;;;9.25;100.00;101057.63;5015781;28;20957;-49
2022/03/14 07:20:38;;;;;;;0.30;0.17;;;;;;;9.35;100.00;101063.75;5015680;28;20949;-49
2022/03/14 07:23:06;;;;;;;0.30;0.20;;;;;;;9.44;100.00;101072.44;5015780;28;20452;-49
2022/03/14 07:25:39;;;;;;;0.30;0.20;;;;;;;9.38;100.00;101092.88;5015679;28;20526;-49
2022/03/14 07:28:08;;;;;;;0.30;0.20;;;;;;;9.35;100.00;101085.84;5015584;28;20554;-49
2022/03/14 07:30:36;;;;;;;0.30;0.10;;;;;;;9.40;100.00;101094.63;5015683;28;20836;-49
2022/03/14 07:33:02;;;;;;;0.30;0.20;;;;;;;9.57;100.00;101104.16;5015537;28;20511;-49
2022/03/14 07:35:29;;;;;;;0.57;0.57;;;;;;;9.50;100.00;101108.66;5015705;28;20453;-49
2022/03/14 07:37:57;;;;;;;0.30;0.20;;;;;;;9.50;100.00;101120.16;5015511;28;20452;-49
2022/03/14 07:40:24;;;;;;;2.93;0.53;;;;;;;9.55;100.00;101128.06;5015485;28;20867;-49
2022/03/14 07:42:53;;;;;;;0.30;0.20;;;;;;;9.57;100.00;101120.97;5015282;28;20826;-49
2022/03/14 07:45:21;;;;;;;0.30;0.20;;;;;;;9.59;100.00;101132.44;5015278;28;20464;-49
2022/03/14 07:47:49;;;;;;;0.30;0.20;;;;;;;9.67;100.00;101141.22;5015180;28;20488;-49
2022/03/14 07:50:16;;;;;;;0.30;0.20;;;;;;;9.71;100.00;101140.25;5014554;28;20485;-49
2022/03/14 07:52:43;;;;;;;0.30;0.20;;;;;;;9.85;100.00;101144.53;5015161;28;20476;-50
2022/03/14 07:55:11;;;;;;;0.30;0.20;;;;;;;9.85;100.00;101139.22;5014948;28;20465;-50
2022/03/14 07:57:38;;;;;;;0.30;0.20;;;;;;;9.92;100.00;101148.91;5014800;28;20475;-49
2022/03/14 08:00:16;;;;;;;0.30;0.20;;;;;;;9.91;100.00;101149.78;5015195;28;20499;-49
2022/03/14 08:02:43;;;;;;;0.30;0.20;;;;;;;9.99;100.00;101142.59;5024913;28;20472;-49
2022/03/14 08:05:14;;;;;;;0.30;0.20;;;;;;;9.87;100.00;101156.94;5005328;28;20473;-49
2022/03/14 08:07:44;;;;;;;0.30;0.20;;;;;;;10.08;100.00;101158.44;5014747;28;20493;-50
2022/03/14 08:10:12;;;;;;;0.30;0.20;;;;;;;10.16;100.00;101167.19;5014938;28;20480;-50
2022/03/14 08:12:49;;;;;;;0.30;0.20;;;;;;;10.13;100.00;101171.63;5014606;28;20984;-50
2022/03/14 08:15:26;;;;;;;0.30;0.20;;;;;;;10.11;100.00;101166.34;5014425;28;20530;-49
2022/03/14 08:17:55;;;;;;;0.30;0.20;;;;;;;10.33;100.00;101177.63;5014554;28;20496;-49
2022/03/14 08:20:23;;;;;;;0.30;0.20;;;;;;;10.36;100.00;101178.47;5014483;28;20448;-50
2022/03/14 08:22:50;;;;;;;0.30;0.20;;;;;;;10.31;100.00;101182.97;5014723;28;20456;-50
2022/03/14 08:25:17;;;;;;;0.30;0.20;;;;;;;10.16;100.00;101191.09;5014291;28;20473;-49
2022/03/14 08:27:43;;;;;;;0.30;0.20;;;;;;;10.12;100.00;101185.81;5014483;28;20993;-49
2022/03/14 08:30:10;;;;;;;0.30;0.20;;;;;;;10.12;100.00;101193.78;5014307;28;20452;-50
2022/03/14 08:32:39;;;;;;;2.93;2.73;;;;;;;10.23;100.00;101197.22;5014915;28;20580;-49
2022/03/14 08:35:08;;;;;;;0.30;0.20;;;;;;;10.14;100.00;101192.00;5014001;28;20473;-49
2022/03/14 08:37:42;;;;;;;0.30;0.20;;;;;;;10.18;100.00;101197.28;5014307;28;20651;-50
2022/03/14 08:40:11;;;;;;;0.30;0.20;;;;;;;10.31;100.00;101204.22;5014266;28;20884;-50
2022/03/14 08:42:39;;;;;;;0.30;0.20;;;;;;;10.29;100.00;101214.00;5014193;28;20514;-49
2022/03/14 08:45:08;;;;;;;0.50;0.50;;;;;;;10.40;100.00;101205.88;5013965;28;20894;-50
2022/03/14 08:47:35;;;;;;;0.30;0.20;;;;;;;10.57;100.00;101218.94;5013880;28;20488;-49
2022/03/14 08:50:08;;;;;;;0.30;0.20;;;;;;;10.74;100.00;101219.59;5013819;28;21004;-49
2022/03/14 08:52:35;;;;;;;0.30;0.20;;;;;;;10.97;100.00;101222.81;5014174;28;20879;-48
2022/03/14 08:55:03;;;;;;;0.30;0.20;;;;;;;11.15;100.00;101229.59;5013977;28;20484;-50
2022/03/14 08:57:29;;;;;;;0.30;0.20;;;;;;;11.51;100.00;101213.91;5013853;28;20869;-49
2022/03/14 08:59:56;;;;;;;0.30;0.20;;;;;;;11.61;99.81;101222.63;5013733;28;20448;-49
2022/03/14 09:02:22;;;;;;;0.30;0.20;;;;;;;11.88;99.54;101222.16;5024115;28;20452;-49
2022/03/14 09:04:49;;;;;;;0.30;0.20;;;;;;;12.16;97.14;101223.38;5001568;28;20468;-49
2022/03/14 09:07:30;;;;;;;0.30;0.20;;;;;;;11.98;95.52;101230.84;5013556;28;20926;-49
2022/03/14 09:10:04;;;;;;;0.30;0.20;;;;;;;11.92;94.47;101229.16;5013585;28;20453;-49
2022/03/14 09:12:35;;;;;;;0.30;0.20;;;;;;;11.88;96.36;101240.81;5013537;28;20503;-49
2022/03/14 09:15:03;;;;;;;0.43;0.43;;;;;;;11.89;96.16;101234.56;5013482;28;20484;-49
2022/03/14 09:17:32;;;;;;;0.30;0.20;;;;;;;11.41;96.50;101238.97;5013527;28;20449;-49
2022/03/14 09:20:01;;;;;;;0.30;0.20;;;;;;;11.58;94.24;101243.06;5013662;28;20445;-49
2022/03/14 09:22:28;;;;;;;0.30;0.20;;;;;;;11.66;95.84;101248.28;5013272;28;20460;-49
2022/03/14 09:24:56;;;;;;;0.30;0.20;;;;;;;11.83;94.37;101254.22;5013127;28;20476;-49
2022/03/14 09:27:23;;;;;;;0.30;0.20;;;;;;;11.78;94.30;101258.69;5013160;28;20492;-49
2022/03/14 09:29:51;;;;;;;0.30;0.20;;;;;;;11.75;94.16;101256.09;5013510;28;20453;-49
2022/03/14 09:32:18;;;;;;;0.30;0.20;;;;;;;11.83;93.96;101262.22;4999127;28;20544;-49
2022/03/14 09:34:45;;;;;;;0.30;0.20;;;;;;;11.92;93.14;101270.91;5013172;28;20504;-49
2022/03/14 09:37:12;;;;;;;0.30;0.20;;;;;;;11.94;93.86;101267.34;5013238;28;20507;-49
2022/03/14 09:39:38;;;;;;;0.30;0.20;;;;;;;11.88;93.04;101270.09;5012888;28;20483;-48
2022/03/14 09:42:10;;;;;;;0.30;0.20;;;;;;;12.02;92.06;101270.72;5013297;28;20452;-49
2022/03/14 09:44:41;;;;;;;0.30;0.20;;;;;;;12.36;93.29;101270.97;5013040;28;20469;-49
2022/03/14 09:47:09;;;;;;;0.30;0.20;;;;;;;12.32;92.49;101279.03;5013024;28;20488;-49
2022/03/14 09:49:36;;;;;;;0.30;0.17;;;;;;;12.43;90.39;101269.03;5012766;28;20504;-49
2022/03/14 09:52:05;;;;;;;0.30;0.20;;;;;;;12.63;91.25;101282.84;5012834;28;21003;-49
2022/03/14 09:54:32;;;;;;;0.30;0.20;;;;;;;12.61;90.59;101286.44;5013179;28;20465;-49
2022/03/14 09:57:01;;;;;;;0.30;0.20;;;;;;;12.57;90.45;101284.75;5012973;28;20472;-48
2022/03/14 09:59:28;;;;;;;0.30;0.20;;;;;;;12.48;89.92;101296.50;5012622;28;20448;-49
2022/03/14 10:01:55;;;;;;;0.30;0.20;;;;;;;12.70;90.34;101292.47;5022777;28;20812;-49
2022/03/14 10:04:22;;;;;;;0.30;0.20;;;;;;;12.70;90.12;101297.81;5002165;28;20476;-50
2022/03/14 10:06:49;;;;;;;0.30;0.20;;;;;;;12.84;88.65;101296.63;5006142;28;20872;-49
2022/03/14 10:09:16;;;;;;;0.30;0.20;;;;;;;12.75;89.86;101298.59;5012393;28;20539;-49
2022/03/14 10:11:43;;;;;;;0.40;0.30;;;;;;;12.92;88.20;101287.56;5012918;28;20452;-50
2022/03/14 10:14:11;;;;;;;0.30;0.20;;;;;;;13.25;88.68;101291.28;5012960;28;20491;-47
2022/03/14 10:16:38;;;;;;;0.30;0.20;;;;;;;13.39;87.12;101298.97;5012633;28;20453;-47
2022/03/14 10:19:09;;;;;;;0.30;0.20;;;;;;;13.38;87.44;101293.66;5012235;28;20934;-47
2022/03/14 10:21:37;;;;;;;0.30;0.20;;;;;;;13.49;85.48;101302.28;5013101;28;20453;-48
2022/03/14 10:24:10;;;;;;;0.30;0.20;;;;;;;13.58;84.80;101302.06;5012482;28;20473;-48
2022/03/14 10:26:40;;;;;;;0.30;0.20;;;;;;;13.02;84.95;101307.81;5012642;28;20448;-47
2022/03/14 10:29:09;;;;;;;0.30;0.20;;;;;;;12.96;85.82;101310.59;5012479;28;20562;-47
2022/03/14 10:31:38;;;;;;;0.30;0.20;;;;;;;12.90;86.13;101307.19;5012192;28;20516;-47
2022/03/14 10:34:10;;;;;;;0.30;0.20;;;;;;;12.71;85.87;101315.56;5012290;28;20526;-48
2022/03/14 10:36:46;;;;;;;0.30;0.20;;;;;;;12.62;87.02;101314.91;5012368;28;20865;-47
2022/03/14 10:39:34;;;;;;;0.30;0.20;;;;;;;12.40;88.30;101317.97;5012423;28;20914;-47
2022/03/14 10:42:12;;;;;;;2.97;0.70;;;;;;;12.49;86.84;101321.38;4999359;28;20511;-47
2022/03/14 10:44:48;;;;;;;0.40;0.30;;;;;;;12.26;88.03;101313.81;5012435;28;20515;-47
2022/03/14 10:47:15;;;;;;;0.30;0.20;;;;;;;12.19;87.88;101323.72;5012171;28;20515;-47
2022/03/14 10:49:43;;;;;;;0.30;0.20;;;;;;;12.11;87.67;101325.66;5012897;28;20503;-49
2022/03/14 10:52:13;;;;;;;0.30;0.20;;;;;;;12.28;86.73;101333.34;5012292;28;20544;-47
2022/03/14 10:54:42;;;;;;;0.40;0.20;;;;;;;12.14;87.85;101333.59;5012228;28;20472;-47
2022/03/14 10:57:16;;;;;;;0.30;0.20;;;;;;;12.04;88.44;101337.31;5012277;28;20540;-47
2022/03/14 10:59:48;;;;;;;0.40;0.30;;;;;;;12.27;87.88;101336.91;5012281;28;20445;-47
2022/03/14 11:02:20;;;;;;;0.30;0.20;;;;;;;12.17;86.98;101344.19;5025097;28;20452;-47
2022/03/14 11:04:55;;;;;;;0.30;0.20;;;;;;;12.13;86.64;101342.50;4999718;28;20468;-46
2022/03/14 11:07:26;;;;;;;0.30;0.20;;;;;;;12.36;87.52;101352.75;5012276;28;20492;-47
2022/03/14 11:09:57;;;;;;;0.30;0.20;;;;;;;12.01;88.21;101350.69;5012002;28;20449;-47
2022/03/14 11:12:26;;;;;;;0.30;0.20;;;;;;;12.20;88.35;101348.56;5012201;28;20514;-46
2022/03/14 11:15:04;;;;;;;0.30;0.20;;;;;;;12.16;87.58;101359.31;5011911;28;20535;-47
2022/03/14 11:17:33;;;;;;;0.30;0.20;;;;;;;12.37;87.66;101357.16;5012044;28;20475;-46
2022/03/14 11:20:19;;;;;;;0.30;0.20;;;;;;;12.35;88.37;101357.19;5012405;28;20531;-47
2022/03/14 11:22:48;;;;;;;0.30;0.20;;;;;;;12.42;86.25;101369.50;5012143;28;20995;-47
2022/03/14 11:25:16;;;;;;;0.30;0.20;;;;;;;12.34;85.38;101367.91;5013353;28;20477;-47
2022/03/14 11:27:45;;;;;;;0.30;0.20;;;;;;;12.17;85.34;101352.19;5015577;28;21032;-46